Time;durP1;ratioP1;P1;durP2;ratioP2;P2;SDS_P1;SDS_P2;PMS_P1;PMS_P2;Temp;Humidity;BMP_temperature;BMP_pressure;BME280_temperature;BME280_humidity;BME280_pressure;Samples;Min_cycle;Max_cycle;Signal;HPM_P1;HPM_P2
2024/02/09 00:00:47;;;;;;;3.78;2.92;;;;;;;9.51;100.00;98562.28;10373479;28;20490;-71
2024/02/09 00:05:50;;;;;;;1.25;1.25;;;;;;;9.58;100.00;98554.00;10389040;28;20050;-71
2024/02/09 00:10:50;;;;;;;0.60;0.60;;;;;;;9.57;100.00;98531.53;10373308;28;20038;-71
2024/02/09 00:15:53;;;;;;;1.48;1.33;;;;;;;9.52;100.00;98524.19;10373781;28;20026;-71
2024/02/09 00:20:53;;;;;;;3.78;3.58;;;;;;;9.53;100.00;98520.41;10372707;28;20104;-71
2024/02/09 00:25:54;;;;;;;1.60;1.58;;;;;;;9.50;100.00;98520.09;10373483;28;20038;-72
2024/02/09 00:30:55;;;;;;;1.20;1.20;;;;;;;9.49;100.00;98511.19;10372844;28;20034;-71
2024/02/09 00:35:56;;;;;;;29.40;3.60;;;;;;;9.48;100.00;98501.44;10372881;28;20046;-71
2024/02/09 00:40:56;;;;;;;4.22;2.20;;;;;;;9.51;100.00;98494.75;10376115;28;20037;-72
2024/02/09 00:45:57;;;;;;;0.70;0.70;;;;;;;9.45;100.00;98484.94;10379420;28;20409;-73
2024/02/09 00:50:57;;;;;;;0.63;0.63;;;;;;;9.46;100.00;98470.34;10380214;28;20082;-71
2024/02/09 00:55:59;;;;;;;0.70;0.70;;;;;;;9.46;100.00;98454.94;10380225;28;20042;-71
2024/02/09 01:00:59;;;;;;;1.00;1.00;;;;;;;9.49;100.00;98448.22;10380508;28;20042;-73
2024/02/09 01:06:00;;;;;;;4.05;3.03;;;;;;;9.48;100.00;98436.63;10380364;28;20042;-73
2024/02/09 01:11:00;;;;;;;0.88;0.88;;;;;;;9.55;100.00;98431.03;10379442;28;20065;-73
2024/02/09 02:46:18;;;;;;;2.38;2.17;;;;;;;9.61;100.00;98297.63;10375568;28;20088;-73
2024/02/09 03:07:15;;;;;;;0.95;0.95;;;;;;;9.51;100.00;98244.31;10374585;28;20038;-70
2024/02/09 03:12:17;;;;;;;2.05;1.95;;;;;;;9.59;100.00;98244.91;10390193;28;20054;-70
2024/02/09 03:17:17;;;;;;;0.60;0.60;;;;;;;9.55;100.00;98242.72;10375071;28;20088;-72
2024/02/09 03:22:18;;;;;;;0.50;0.50;;;;;;;9.57;100.00;98238.94;10373173;28;20050;-73
2024/02/09 03:27:18;;;;;;;0.40;0.40;;;;;;;9.55;100.00;98225.69;10375026;28;20045;-72
2024/02/09 03:32:20;;;;;;;0.70;0.70;;;;;;;9.52;100.00;98220.81;10375298;28;20546;-72
2024/02/09 03:37:26;;;;;;;0.38;0.38;;;;;;;9.57;100.00;98217.31;10374674;28;20104;-73
2024/02/09 03:42:27;;;;;;;0.80;0.80;;;;;;;9.54;100.00;98215.97;10357371;28;20038;-71
2024/02/09 03:47:27;;;;;;;0.40;0.40;;;;;;;9.57;100.00;98211.91;10355906;28;20034;-72
2024/02/09 03:52:29;;;;;;;0.30;0.30;;;;;;;9.63;100.00;98200.91;10373039;28;20034;-72
2024/02/09 03:57:31;;;;;;;0.70;0.70;;;;;;;9.61;100.00;98194.94;10373164;28;20116;-73
2024/02/09 04:02:31;;;;;;;2.65;2.47;;;;;;;9.57;100.00;98193.81;10374739;28;20044;-73
2024/02/09 04:07:32;;;;;;;0.60;0.60;;;;;;;9.54;100.00;98189.75;10389473;28;20038;-73
2024/02/09 04:12:32;;;;;;;2.58;2.38;;;;;;;9.61;100.00;98191.44;10373809;28;20153;-74
2024/02/09 04:17:33;;;;;;;0.50;0.50;;;;;;;9.60;100.00;98177.09;10372595;28;20474;-72
2024/02/09 04:22:33;;;;;;;0.30;0.30;;;;;;;9.53;100.00;98181.91;10404714;28;20049;-73
2024/02/09 04:27:34;;;;;;;0.50;0.50;;;;;;;9.51;100.00;98174.06;10373359;28;20547;-73
2024/02/09 04:32:35;;;;;;;2.15;2.05;;;;;;;9.54;100.00;98161.94;10371558;28;20060;-70
2024/02/09 04:37:36;;;;;;;0.40;0.40;;;;;;;9.47;100.00;98174.81;10372743;28;20073;-73
2024/02/09 04:42:36;;;;;;;0.93;0.93;;;;;;;9.54;100.00;98164.66;10371458;28;20026;-72
2024/02/09 04:47:37;;;;;;;0.68;0.68;;;;;;;9.48;100.00;98152.97;10387552;28;20034;-73
2024/02/09 04:52:37;;;;;;;0.60;0.60;;;;;;;9.32;100.00;98148.53;10371172;28;20038;-72
2024/02/09 04:57:38;;;;;;;0.40;0.40;;;;;;;9.37;100.00;98150.44;10372225;28;20045;-71
2024/02/09 05:02:43;;;;;;;2.00;1.98;;;;;;;9.40;100.00;98139.94;10372584;28;20034;-72
2024/02/09 05:07:45;;;;;;;0.60;0.60;;;;;;;9.35;100.00;98137.19;10371407;28;20026;-76
2024/02/09 05:12:45;;;;;;;0.45;0.45;;;;;;;9.49;100.00;98134.88;10372493;28;20046;-73
2024/02/09 05:17:46;;;;;;;0.60;0.60;;;;;;;9.51;100.00;98138.16;10372452;28;20065;-74
2024/02/09 05:22:46;;;;;;;1.75;1.75;;;;;;;9.51;100.00;98130.84;10371440;28;20049;-74
2024/02/09 05:27:47;;;;;;;5.00;4.13;;;;;;;9.48;100.00;98128.66;10376826;28;20033;-73
2024/02/09 05:32:48;;;;;;;12.70;4.63;;;;;;;9.46;100.00;98122.69;10386937;28;20045;-76
2024/02/09 05:37:48;;;;;;;0.40;0.40;;;;;;;9.47;100.00;98127.00;10390226;28;20057;-75
2024/02/09 05:42:49;;;;;;;0.43;0.43;;;;;;;9.47;100.00;98121.63;10423826;28;20034;-74
2024/02/09 05:47:49;;;;;;;3.90;3.42;;;;;;;9.52;100.00;98120.84;10388317;28;20045;-76
2024/02/09 05:52:50;;;;;;;2.42;2.22;;;;;;;9.53;100.00;98120.59;10383425;28;20045;-73
2024/02/09 05:57:54;;;;;;;1.45;1.45;;;;;;;9.57;100.00;98115.47;10379869;28;20057;-73
2024/02/09 06:02:55;;;;;;;0.47;0.47;;;;;;;9.54;100.00;98110.63;10378312;28;20026;-73
2024/02/09 06:07:56;;;;;;;0.40;0.40;;;;;;;9.49;100.00;98108.66;10377768;28;20030;-75
2024/02/09 06:12:56;;;;;;;1.88;1.77;;;;;;;9.54;100.00;98100.63;10377208;28;20077;-74
2024/02/09 06:17:58;;;;;;;0.52;0.52;;;;;;;9.53;100.00;98098.97;10378440;28;20037;-74
2024/02/09 06:22:58;;;;;;;0.93;0.93;;;;;;;9.58;100.00;98103.59;10377964;28;20065;-74
2024/02/09 06:28:02;;;;;;;0.98;0.98;;;;;;;9.59;100.00;98099.81;10391771;28;20045;-76
2024/02/09 06:33:03;;;;;;;0.50;0.50;;;;;;;9.60;100.00;98092.53;10376911;28;20049;-74
2024/02/09 06:38:03;;;;;;;1.05;1.05;;;;;;;9.60;100.00;98087.13;10377274;28;20433;-72
2024/02/09 06:43:05;;;;;;;1.55;1.55;;;;;;;9.53;100.00;98098.97;10408475;28;20042;-72
2024/02/09 06:48:06;;;;;;;0.73;0.73;;;;;;;9.58;100.00;98092.00;10408640;28;20033;-73
2024/02/09 06:53:06;;;;;;;2.88;2.42;;;;;;;9.54;100.00;98081.72;10374585;28;20043;-71
2024/02/09 06:58:07;;;;;;;1.33;1.33;;;;;;;9.59;100.00;98097.13;10376010;28;20477;-73
2024/02/09 07:03:07;;;;;;;0.43;0.43;;;;;;;9.61;100.00;98091.47;10375849;28;20033;-72
2024/02/09 07:08:08;;;;;;;0.98;0.98;;;;;;;9.65;100.00;98096.09;10375344;28;20461;-73
2024/02/09 07:13:08;;;;;;;0.57;0.57;;;;;;;9.69;100.00;98093.66;10374946;28;20077;-71
2024/02/09 07:18:08;;;;;;;0.82;0.82;;;;;;;9.73;100.00;98105.59;10375781;28;20049;-73
2024/02/09 07:23:09;;;;;;;1.08;1.08;;;;;;;9.71;100.00;98095.03;10374448;28;20034;-74
2024/02/09 07:28:10;;;;;;;0.40;0.40;;;;;;;9.69;100.00;98101.78;10374600;28;20080;-72
2024/02/09 07:33:10;;;;;;;7.57;4.07;;;;;;;9.68;100.00;98100.97;10374090;28;20104;-73
2024/02/09 07:38:11;;;;;;;0.40;0.40;;;;;;;9.66;100.00;98100.41;10375037;28;20425;-74
2024/02/09 07:43:12;;;;;;;0.32;0.32;;;;;;;9.74;100.00;98126.16;10372783;28;20093;-73
2024/02/09 07:48:12;;;;;;;0.75;0.75;;;;;;;9.75;100.00;98120.47;10373292;28;20473;-75
2024/02/09 07:53:15;;;;;;;0.30;0.30;;;;;;;9.81;100.00;98120.50;10404542;28;20347;-74
2024/02/09 07:58:16;;;;;;;0.40;0.40;;;;;;;9.82;100.00;98130.25;10405612;28;20034;-73
2024/02/09 08:03:20;;;;;;;0.40;0.40;;;;;;;9.83;100.00;98134.56;10373406;28;20061;-76
2024/02/09 08:08:20;;;;;;;0.50;0.50;;;;;;;9.92;100.00;98131.13;10373340;28;20041;-74
2024/02/09 08:13:20;;;;;;;1.05;1.05;;;;;;;10.02;100.00;98142.00;10373032;28;20053;-73
2024/02/09 08:18:21;;;;;;;0.68;0.68;;;;;;;10.04;100.00;98140.91;10404652;28;20078;-74
2024/02/09 08:23:22;;;;;;;0.70;0.70;;;;;;;10.06;100.00;98130.66;10372162;28;20037;-74
2024/02/09 08:28:24;;;;;;;0.40;0.40;;;;;;;10.05;100.00;98143.38;10373458;28;20148;-75
2024/02/09 08:33:25;;;;;;;2.47;2.33;;;;;;;10.06;100.00;98149.59;10388031;28;20038;-75
2024/02/09 08:38:26;;;;;;;0.77;0.77;;;;;;;10.14;100.00;98146.38;10373817;28;20038;-74
2024/02/09 08:43:27;;;;;;;0.57;0.57;;;;;;;10.23;100.00;98161.84;10373344;28;20038;-75
2024/02/09 08:48:28;;;;;;;0.40;0.40;;;;;;;10.25;100.00;98165.09;10373246;28;20446;-73
2024/02/09 08:53:28;;;;;;;9.40;2.53;;;;;;;10.12;100.00;98152.06;10371015;28;20034;-74
2024/02/09 08:58:30;;;;;;;0.38;0.38;;;;;;;10.22;100.00;98159.41;10404269;28;20482;-73
2024/02/09 09:03:30;;;;;;;0.55;0.55;;;;;;;10.19;100.00;98170.75;10378210;28;20093;-75
2024/02/09 09:08:31;;;;;;;0.95;0.95;;;;;;;10.19;100.00;98178.88;10363124;28;20041;-74
2024/02/09 09:13:31;;;;;;;1.77;1.67;;;;;;;10.22;100.00;98181.06;10377968;28;20061;-75
2024/02/09 09:18:32;;;;;;;0.43;0.43;;;;;;;10.35;100.00;98182.50;10379210;28;20477;-76
2024/02/09 09:23:32;;;;;;;0.50;0.50;;;;;;;10.49;100.00;98180.94;10411083;28;20096;-77
2024/02/09 09:28:33;;;;;;;3.53;3.03;;;;;;;10.59;100.00;98178.31;10378229;28;20054;-76
2024/02/09 09:33:33;;;;;;;0.50;0.50;;;;;;;10.99;100.00;98192.22;10378603;28;20425;-74
2024/02/09 09:38:34;;;;;;;0.30;0.30;;;;;;;10.98;100.00;98180.59;10378702;28;20485;-75
2024/02/09 09:43:34;;;;;;;0.93;0.82;;;;;;;10.88;100.00;98189.50;10378493;28;20077;-75
2024/02/09 09:48:35;;;;;;;0.50;0.50;;;;;;;10.93;100.00;98181.38;10376257;28;20061;-75
2024/02/09 09:53:39;;;;;;;0.50;0.50;;;;;;;10.96;100.00;98184.66;10377901;28;20034;-75
2024/02/09 09:58:39;;;;;;;6.00;3.60;;;;;;;10.91;100.00;98198.97;10360131;28;20041;-75
2024/02/09 10:03:41;;;;;;;4.28;3.42;;;;;;;10.94;100.00;98191.16;10376895;28;20030;-75
2024/02/09 10:08:41;;;;;;;5.57;3.22;;;;;;;11.08;100.00;98198.75;10376723;28;20084;-76
2024/02/09 10:13:43;;;;;;;4.97;3.50;;;;;;;11.25;100.00;98203.94;10377473;28;20065;-75
2024/02/09 10:18:44;;;;;;;2.72;2.00;;;;;;;11.33;100.00;98209.66;10376035;28;20141;-76
2024/02/09 10:23:46;;;;;;;5.63;3.45;;;;;;;11.49;100.00;98209.69;10377045;28;20113;-77
2024/02/09 10:28:52;;;;;;;11.05;4.15;;;;;;;11.15;100.00;98219.09;10358908;28;20056;-75
2024/02/09 10:33:56;;;;;;;9.32;3.42;;;;;;;11.24;100.00;98219.38;10359288;28;20034;-74
2024/02/09 10:38:58;;;;;;;6.53;2.60;;;;;;;10.95;100.00;98238.00;10408677;28;20038;-74
2024/02/09 10:43:58;;;;;;;4.53;3.28;;;;;;;10.89;100.00;98229.03;10376049;28;20068;-76
2024/02/09 10:48:59;;;;;;;4.10;2.70;;;;;;;10.90;100.00;98233.34;10375532;28;20072;-76
2024/02/09 10:54:14;;;;;;;3.60;3.20;;;;;;;10.82;100.00;98241.19;10358632;28;20022;-76
2024/02/09 10:59:14;;;;;;;6.38;3.05;;;;;;;11.00;100.00;98248.00;10374214;28;20489;-75
2024/02/09 11:04:15;;;;;;;3.70;3.10;;;;;;;11.15;100.00;98248.88;10374029;28;20030;-76
2024/02/09 11:09:15;;;;;;;6.22;3.25;;;;;;;11.58;100.00;98243.28;10358659;28;20034;-75
2024/02/09 11:14:16;;;;;;;2.88;2.55;;;;;;;12.28;100.00;98233.56;10391309;28;20335;-75
2024/02/09 11:19:17;;;;;;;4.95;2.75;;;;;;;12.86;100.00;98232.28;10390213;28;20073;-75
2024/02/09 11:24:17;;;;;;;13.82;3.97;;;;;;;12.70;100.00;98224.22;10406422;28;20040;-76
2024/02/09 11:29:18;;;;;;;3.45;2.95;;;;;;;13.32;100.00;98229.41;10373882;28;20069;-75
2024/02/09 11:34:22;;;;;;;1.88;1.77;;;;;;;12.69;100.00;98244.28;10372144;28;20037;-75
2024/02/09 11:39:22;;;;;;;4.38;3.90;;;;;;;12.31;100.00;98241.13;10356433;28;20064;-75
2024/02/09 11:44:22;;;;;;;3.03;2.38;;;;;;;11.92;100.00;98245.50;10372649;28;20088;-74
2024/02/09 11:49:23;;;;;;;2.10;1.98;;;;;;;11.69;100.00;98250.34;10374334;28;20121;-75
2024/02/09 11:54:24;;;;;;;2.15;1.65;;;;;;;11.73;100.00;98245.19;10374177;28;20030;-76
2024/02/09 11:59:25;;;;;;;4.40;2.35;;;;;;;11.73;100.00;98237.88;10389297;28;20056;-75
2024/02/09 12:04:25;;;;;;;6.93;1.98;;;;;;;11.91;100.00;98243.88;10374471;28;20037;-75
2024/02/09 12:09:27;;;;;;;6.85;2.33;;;;;;;12.16;100.00;98238.44;10372883;28;20377;-74
2024/02/09 12:14:27;;;;;;;4.68;2.70;;;;;;;12.27;100.00;98240.06;10372218;28;20499;-74
2024/02/09 12:19:28;;;;;;;4.63;2.50;;;;;;;12.43;100.00;98237.31;10372011;28;20068;-74
2024/02/09 12:24:30;;;;;;;2.60;2.38;;;;;;;12.39;100.00;98250.63;10372738;28;20099;-75
2024/02/09 12:29:30;;;;;;;5.05;2.45;;;;;;;12.39;100.00;98247.91;10372240;28;20030;-75
2024/02/09 12:34:31;;;;;;;3.80;2.67;;;;;;;12.63;100.00;98242.69;10372902;28;20038;-74
2024/02/09 12:39:33;;;;;;;9.52;3.55;;;;;;;12.73;100.00;98245.38;10395631;28;20040;-75
2024/02/09 12:44:37;;;;;;;5.63;2.72;;;;;;;12.68;100.00;98242.69;10363103;28;20030;-75
2024/02/09 12:49:37;;;;;;;11.90;4.28;;;;;;;12.54;100.00;98241.66;10379354;28;20034;-73
2024/02/09 12:54:37;;;;;;;4.85;2.40;;;;;;;12.60;100.00;98251.38;10380029;28;20120;-74
2024/02/09 12:59:40;;;;;;;3.53;2.30;;;;;;;12.59;100.00;98240.81;10380236;28;20073;-73
2024/02/09 13:04:40;;;;;;;3.15;2.95;;;;;;;13.03;100.00;98249.06;10379914;28;20033;-74
2024/02/09 13:09:40;;;;;;;3.78;2.08;;;;;;;13.10;100.00;98246.84;10380887;28;20045;-73
2024/02/09 13:14:41;;;;;;;5.55;2.55;;;;;;;12.97;100.00;98258.34;10379275;28;20536;-72
2024/02/09 13:19:41;;;;;;;5.75;2.65;;;;;;;13.08;100.00;98248.22;10410952;28;20038;-75
2024/02/09 13:24:42;;;;;;;5.05;2.63;;;;;;;13.12;100.00;98258.28;10379310;28;20121;-72
2024/02/09 13:29:43;;;;;;;4.93;1.88;;;;;;;12.83;100.00;98257.28;10379520;28;20073;-74
2024/02/09 13:34:43;;;;;;;5.90;1.90;;;;;;;12.64;100.00;98266.06;10378641;28;20417;-72
2024/02/09 13:39:44;;;;;;;3.50;2.35;;;;;;;12.66;100.00;98260.31;10378147;28;20358;-74
2024/02/09 13:44:44;;;;;;;2.50;2.25;;;;;;;12.54;100.00;98266.88;10377421;28;20037;-72
2024/02/09 13:49:45;;;;;;;7.55;2.25;;;;;;;12.53;100.00;98267.16;10376728;28;20160;-72
2024/02/09 13:54:45;;;;;;;6.03;2.17;;;;;;;12.63;100.00;98250.81;10377169;28;20040;-72
2024/02/09 13:59:46;;;;;;;9.48;3.30;;;;;;;12.76;100.00;98263.00;10377675;28;20052;-71
2024/02/09 14:04:46;;;;;;;17.60;3.47;;;;;;;12.65;100.00;98253.28;10378019;28;20545;-72
2024/02/09 14:09:47;;;;;;;4.03;2.60;;;;;;;12.76;100.00;98254.84;10376828;28;20077;-72
2024/02/09 14:14:47;;;;;;;9.10;2.83;;;;;;;12.74;100.00;98257.88;10394155;28;20466;-73
2024/02/09 14:19:47;;;;;;;7.93;2.83;;;;;;;12.68;100.00;98250.81;10378861;28;20037;-74
2024/02/09 14:24:48;;;;;;;5.97;2.42;;;;;;;12.57;100.00;98260.06;10376372;28;20438;-72
2024/02/09 14:29:50;;;;;;;6.15;2.50;;;;;;;12.55;100.00;98259.56;10377701;28;20040;-73
2024/02/09 14:34:50;;;;;;;16.90;2.92;;;;;;;12.90;100.00;98255.09;10378164;28;20072;-73
2024/02/09 14:39:51;;;;;;;12.25;2.10;;;;;;;12.82;100.00;98251.03;10380639;28;20135;-71
2024/02/09 14:44:51;;;;;;;2.25;1.95;;;;;;;12.66;100.00;98247.56;10377747;28;20058;-71
2024/02/09 14:49:52;;;;;;;2.25;2.05;;;;;;;12.59;100.00;98254.38;10377328;28;20037;-73
2024/02/09 14:54:52;;;;;;;3.00;2.33;;;;;;;12.56;100.00;98261.97;10376000;28;20095;-73
2024/02/09 14:59:53;;;;;;;2.97;2.38;;;;;;;12.63;100.00;98261.69;10407656;28;20065;-74
2024/02/09 15:04:54;;;;;;;5.05;1.40;;;;;;;12.65;100.00;98248.66;10375784;28;20041;-71
2024/02/09 15:09:54;;;;;;;3.00;1.40;;;;;;;12.62;100.00;98260.06;10374894;28;20515;-73
2024/02/09 15:14:55;;;;;;;2.67;2.45;;;;;;;12.62;100.00;98265.50;10374927;28;20065;-72
2024/02/09 15:19:55;;;;;;;2.33;1.75;;;;;;;12.41;100.00;98259.31;10373620;28;20040;-72
2024/02/09 15:24:56;;;;;;;4.82;2.38;;;;;;;12.42;100.00;98254.69;10375184;28;20053;-75
2024/02/09 15:29:57;;;;;;;5.15;2.20;;;;;;;12.47;100.00;98252.75;10375548;28;20034;-75
2024/02/09 15:34:57;;;;;;;2.13;1.55;;;;;;;12.42;100.00;98249.28;10376152;28;20065;-72
2024/02/09 15:39:58;;;;;;;12.50;3.38;;;;;;;12.39;100.00;98266.09;10376875;28;20129;-73
2024/02/09 15:44:58;;;;;;;5.20;2.15;;;;;;;12.38;100.00;98261.75;10376749;28;20072;-73
2024/02/09 15:50:00;;;;;;;8.27;2.58;;;;;;;12.27;100.00;98260.94;10378722;28;20495;-73
2024/02/09 15:55:00;;;;;;;4.32;2.95;;;;;;;12.19;100.00;98264.19;10375250;28;20083;-70
2024/02/09 16:00:02;;;;;;;2.05;1.83;;;;;;;12.10;100.00;98263.97;10377277;28;20034;-72
2024/02/09 16:05:04;;;;;;;6.15;2.38;;;;;;;12.15;100.00;98261.22;10374388;28;20066;-73
2024/02/09 16:10:06;;;;;;;7.43;2.92;;;;;;;12.12;100.00;98253.63;10372825;28;20033;-72
2024/02/09 16:15:06;;;;;;;3.65;2.70;;;;;;;12.13;100.00;98244.41;10372674;28;20459;-72
2024/02/09 16:20:16;;;;;;;3.35;3.05;;;;;;;12.09;100.00;98243.31;10404049;28;20041;-72
2024/02/09 16:25:17;;;;;;;4.75;2.38;;;;;;;12.02;100.00;98240.88;10372276;28;20030;-73
2024/02/09 16:30:18;;;;;;;5.25;2.63;;;;;;;11.95;100.00;98239.53;10354141;28;20034;-73
2024/02/09 16:35:19;;;;;;;12.82;2.28;;;;;;;12.00;100.00;98243.06;10373773;28;20044;-72
2024/02/09 16:40:19;;;;;;;2.78;2.35;;;;;;;12.07;100.00;98248.22;10404948;28;20489;-71
2024/02/09 16:45:20;;;;;;;3.67;1.90;;;;;;;12.07;100.00;98246.31;10372398;28;20038;-73
2024/02/09 16:50:20;;;;;;;3.70;2.15;;;;;;;11.99;100.00;98244.13;10372221;28;20373;-72
2024/02/09 16:55:21;;;;;;;2.53;2.33;;;;;;;11.98;100.00;98256.09;10370893;28;20119;-72
2024/02/09 17:00:21;;;;;;;14.05;2.55;;;;;;;11.98;100.00;98253.38;10372331;28;20026;-73
2024/02/09 17:05:22;;;;;;;3.95;1.92;;;;;;;11.93;100.00;98258.78;10386537;28;20462;-73
2024/02/09 17:10:23;;;;;;;8.50;2.20;;;;;;;11.89;100.00;98254.19;10372006;28;20049;-72
2024/02/09 17:15:23;;;;;;;10.35;3.08;;;;;;;11.88;100.00;98260.69;10370602;28;20481;-71
2024/02/09 17:20:24;;;;;;;5.90;1.58;;;;;;;11.86;100.00;98252.81;10370171;28;20454;-73
2024/02/09 17:25:24;;;;;;;5.55;2.10;;;;;;;11.91;100.00;98265.59;10379074;28;20038;-71
2024/02/09 17:30:25;;;;;;;1.08;1.08;;;;;;;11.83;100.00;98262.28;10377972;28;20041;-73
2024/02/09 17:35:26;;;;;;;4.05;2.50;;;;;;;11.77;100.00;98255.25;10378780;28;20053;-73
2024/02/09 17:40:27;;;;;;;6.03;2.15;;;;;;;11.82;100.00;98270.69;10378203;28;20030;-72
2024/02/09 17:45:28;;;;;;;5.75;2.33;;;;;;;11.78;100.00;98273.13;10378548;28;20034;-71
2024/02/09 17:50:29;;;;;;;14.55;1.88;;;;;;;11.76;100.00;98275.28;10378794;28;20030;-73
2024/02/09 17:55:30;;;;;;;5.22;2.53;;;;;;;11.77;100.00;98273.38;10378693;28;20476;-72
2024/02/09 18:00:31;;;;;;;3.80;2.78;;;;;;;11.79;100.00;98277.47;10377663;28;20117;-72
2024/02/09 18:05:31;;;;;;;4.20;2.08;;;;;;;11.82;100.00;98278.81;10409057;28;20065;-73
2024/02/09 18:10:32;;;;;;;3.40;2.35;;;;;;;11.77;100.00;98287.78;10359000;28;20036;-72
2024/02/09 18:15:33;;;;;;;9.82;2.75;;;;;;;11.64;100.00;98288.28;10375895;28;20104;-72
2024/02/09 18:20:37;;;;;;;8.40;2.92;;;;;;;11.54;100.00;98299.09;10376688;28;20044;-73
2024/02/09 18:25:38;;;;;;;4.85;1.73;;;;;;;11.59;100.00;98288.28;10359106;28;20044;-72
2024/02/09 18:30:38;;;;;;;8.07;4.38;;;;;;;11.48;100.00;98290.13;10377214;28;20073;-74
2024/02/09 18:35:39;;;;;;;3.47;2.40;;;;;;;11.48;100.00;98289.34;10374570;28;20038;-72
2024/02/09 18:40:39;;;;;;;12.40;3.25;;;;;;;11.38;100.00;98300.97;10408042;28;20044;-73
2024/02/09 18:45:40;;;;;;;12.20;2.67;;;;;;;11.31;100.00;98297.69;10391407;28;20565;-73
2024/02/09 18:50:42;;;;;;;2.55;2.05;;;;;;;11.43;100.00;98295.56;10375882;28;20084;-75
2024/02/09 18:55:43;;;;;;;7.10;2.83;;;;;;;11.54;100.00;98307.22;10376605;28;20030;-74
2024/02/09 19:00:43;;;;;;;9.75;2.97;;;;;;;11.56;100.00;98302.38;10374191;28;20532;-72
2024/02/09 19:05:44;;;;;;;6.45;3.83;;;;;;;11.51;100.00;98300.44;10375437;28;20036;-71
2024/02/09 19:10:44;;;;;;;8.52;2.50;;;;;;;11.57;100.00;98314.84;10374711;28;20042;-73
2024/02/09 19:15:44;;;;;;;3.20;2.22;;;;;;;11.61;100.00;98300.50;10375638;28;20060;-74
2024/02/09 19:20:45;;;;;;;4.15;2.38;;;;;;;11.44;100.00;98301.78;10373945;28;20034;-73
2024/02/09 19:25:46;;;;;;;9.13;3.67;;;;;;;11.34;100.00;98305.28;10375434;28;20038;-72
2024/02/09 19:30:50;;;;;;;5.28;2.22;;;;;;;11.19;100.00;98297.91;10374262;28;20085;-73
2024/02/09 19:35:50;;;;;;;2.75;1.90;;;;;;;11.22;100.00;98297.38;10373795;28;20045;-72
2024/02/09 19:40:51;;;;;;;9.10;3.70;;;;;;;11.13;100.00;98305.19;10373911;28;20030;-73
2024/02/09 19:45:52;;;;;;;3.72;2.42;;;;;;;10.98;100.00;98313.28;10404195;28;20061;-73
2024/02/09 19:50:53;;;;;;;6.18;3.05;;;;;;;10.82;100.00;98312.38;10405504;28;20088;-72
2024/02/09 19:55:55;;;;;;;18.08;5.18;;;;;;;10.65;100.00;98314.44;10373121;28;20455;-73
2024/02/09 20:00:55;;;;;;;10.55;3.20;;;;;;;10.44;100.00;98310.78;10372588;28;20038;-73
2024/02/09 20:05:58;;;;;;;16.10;4.07;;;;;;;10.34;100.00;98325.06;10406097;28;20107;-72
2024/02/09 20:10:59;;;;;;;8.63;3.08;;;;;;;10.26;100.00;98312.00;10404728;28;20029;-75
2024/02/09 20:16:02;;;;;;;11.38;3.50;;;;;;;10.24;100.00;98311.41;10373616;28;20180;-73
2024/02/09 20:21:04;;;;;;;6.45;2.85;;;;;;;10.28;100.00;98306.34;10373816;28;20038;-75
2024/02/09 20:26:05;;;;;;;8.82;2.95;;;;;;;10.54;100.00;98310.03;10373459;28;20026;-73
2024/02/09 20:31:08;;;;;;;12.43;4.25;;;;;;;10.56;100.00;98310.59;10372904;28;20038;-73
2024/02/09 20:36:12;;;;;;;10.63;4.47;;;;;;;10.51;100.00;98302.44;10373798;28;20034;-72
2024/02/09 20:41:17;;;;;;;13.60;4.15;;;;;;;10.37;100.00;98302.06;10372224;28;20034;-71
2024/02/09 20:46:21;;;;;;;8.23;3.28;;;;;;;10.22;100.00;98308.16;10404425;28;20033;-73
2024/02/09 20:51:21;;;;;;;6.13;3.20;;;;;;;10.20;100.00;98321.94;10356084;28;20338;-73
2024/02/09 20:56:23;;;;;;;10.23;3.83;;;;;;;10.14;100.00;98306.72;10372281;28;20041;-74
2024/02/09 21:01:23;;;;;;;10.77;4.68;;;;;;;10.14;100.00;98314.03;10379744;28;20068;-72
2024/02/09 21:06:28;;;;;;;7.63;3.53;;;;;;;10.17;100.00;98318.94;10380828;28;20456;-73
2024/02/09 21:11:29;;;;;;;7.85;3.40;;;;;;;10.12;100.00;98310.78;10381939;28;20348;-72
2024/02/09 21:16:30;;;;;;;8.73;3.92;;;;;;;10.27;100.00;98318.22;10381274;28;20058;-72
2024/02/09 21:21:30;;;;;;;3.83;3.13;;;;;;;10.31;100.00;98325.56;10379133;28;20443;-73
2024/02/09 21:26:30;;;;;;;20.92;4.65;;;;;;;10.28;100.00;98328.81;10378050;28;20069;-74
2024/02/09 21:31:31;;;;;;;9.52;3.65;;;;;;;10.36;100.00;98333.72;10377694;28;20057;-75
2024/02/09 21:36:32;;;;;;;4.15;3.80;;;;;;;10.38;100.00;98331.56;10379320;28;20069;-72
2024/02/09 21:41:33;;;;;;;6.13;4.03;;;;;;;10.43;100.00;98339.75;10378209;28;20038;-72
2024/02/09 21:46:33;;;;;;;14.15;4.40;;;;;;;10.49;100.00;98332.47;10378531;28;20120;-72
2024/02/09 21:51:37;;;;;;;17.23;5.15;;;;;;;10.51;100.00;98335.72;10378350;28;20044;-72
2024/02/09 21:56:37;;;;;;;5.20;4.07;;;;;;;10.58;100.00;98340.91;10393695;28;20049;-73
2024/02/09 22:01:37;;;;;;;4.63;3.75;;;;;;;10.60;100.00;98328.75;10410358;28;20030;-72
2024/02/09 22:06:39;;;;;;;13.88;5.30;;;;;;;10.50;100.00;98334.09;10413994;28;20397;-71
2024/02/09 22:11:39;;;;;;;3.65;3.35;;;;;;;10.33;100.00;98328.81;10380002;28;20073;-73
2024/02/09 22:16:42;;;;;;;14.05;4.85;;;;;;;10.21;100.00;98325.44;10411285;28;20496;-73
2024/02/09 22:21:42;;;;;;;8.02;5.10;;;;;;;10.14;100.00;98331.06;10380184;28;20030;-71
2024/02/09 22:26:43;;;;;;;14.18;5.18;;;;;;;10.32;100.00;98338.03;10379283;28;20581;-71
2024/02/09 22:31:43;;;;;;;3.38;3.05;;;;;;;10.45;100.00;98334.88;10378213;28;20080;-73
2024/02/09 22:36:46;;;;;;;16.38;5.75;;;;;;;10.59;100.00;98337.97;10378264;28;20114;-71
2024/02/09 22:41:47;;;;;;;5.47;4.65;;;;;;;10.65;100.00;98328.78;10395615;28;20030;-72
2024/02/09 22:46:47;;;;;;;15.10;3.97;;;;;;;10.63;100.00;98339.06;10377919;28;20126;-73
2024/02/09 22:51:52;;;;;;;16.20;3.65;;;;;;;10.41;100.00;98351.91;10377331;28;20046;-72
2024/02/09 22:56:52;;;;;;;4.90;4.40;;;;;;;10.15;100.00;98343.53;10378176;28;20045;-74
2024/02/09 23:01:53;;;;;;;7.88;4.65;;;;;;;9.99;100.00;98333.66;10377429;28;20065;-72
2024/02/09 23:06:55;;;;;;;8.00;4.97;;;;;;;9.91;100.00;98351.16;10376657;28;20069;-72
2024/02/09 23:11:56;;;;;;;13.65;5.93;;;;;;;9.85;100.00;98349.47;10378110;28;20026;-73
2024/02/09 23:16:56;;;;;;;13.73;5.13;;;;;;;9.94;100.00;98358.75;10378287;28;20050;-72
2024/02/09 23:21:57;;;;;;;14.00;4.53;;;;;;;9.88;100.00;98356.25;10378868;28;20041;-73
2024/02/09 23:27:00;;;;;;;11.13;4.75;;;;;;;9.95;100.00;98360.38;10375177;28;20037;-73
2024/02/09 23:32:02;;;;;;;8.75;4.95;;;;;;;9.97;100.00;98374.47;10377332;28;20378;-72
2024/02/09 23:37:02;;;;;;;19.00;6.03;;;;;;;10.09;100.00;98376.19;10377850;28;20531;-73
2024/02/09 23:42:03;;;;;;;6.82;4.68;;;;;;;10.16;100.00;98366.78;10376455;28;20116;-72
2024/02/09 23:47:05;;;;;;;6.88;4.78;;;;;;;10.27;100.00;98372.31;10377477;28;20041;-71
2024/02/09 23:52:05;;;;;;;17.40;5.88;;;;;;;10.39;100.00;98372.97;10376651;28;20037;-72
2024/02/09 23:57:08;;;;;;;5.75;4.90;;;;;;;10.51;100.00;98370.09;10358388;28;20034;-72
